Time;durP1;ratioP1;P1;durP2;ratioP2;P2;SDS_P1;SDS_P2;PMS_P1;PMS_P2;Temp;Humidity;BMP_temperature;BMP_pressure;BME280_temperature;BME280_humidity;BME280_pressure;Samples;Min_cycle;Max_cycle;Signal;HPM_P1;HPM_P2
2021/03/01 00:00:22;;;;;;;76.43;29.93;;;3.60;95.20;;;;;;5029737;28;20500;-84
2021/03/01 00:02:48;;;;;;;75.87;30.73;;;3.60;95.20;;;;;;5028267;28;20391;-84
2021/03/01 00:05:14;;;;;;;83.43;30.20;;;3.60;95.40;;;;;;5028555;28;20466;-85
2021/03/01 00:07:40;;;;;;;76.38;28.63;;;3.60;95.20;;;;;;5029154;28;20852;-85
2021/03/01 00:10:07;;;;;;;78.20;27.58;;;3.50;95.20;;;;;;5029377;28;20781;-85
2021/03/01 00:12:33;;;;;;;71.25;25.38;;;3.50;95.10;;;;;;5028108;28;20429;-84
2021/03/01 00:14:58;;;;;;;91.97;31.33;;;3.40;95.40;;;;;;5028413;28;20938;-84
2021/03/01 00:17:24;;;;;;;77.00;30.33;;;3.50;95.40;;;;;;5027966;28;20721;-85
2021/03/01 00:19:50;;;;;;;76.25;28.80;;;3.40;95.50;;;;;;5027950;28;20487;-85
2021/03/01 00:22:15;;;;;;;85.68;28.63;;;3.50;95.40;;;;;;5027889;28;20423;-85
2021/03/01 00:24:42;;;;;;;117.03;29.25;;;3.50;95.50;;;;;;5029848;28;20391;-84
2021/03/01 00:27:07;;;;;;;94.32;29.83;;;3.30;95.20;;;;;;5028642;28;20376;-85
2021/03/01 00:29:33;;;;;;;99.85;27.95;;;3.30;95.60;;;;;;5028000;28;20443;-85
2021/03/01 00:31:58;;;;;;;132.40;32.22;;;3.20;95.70;;;;;;5027828;28;20403;-86
2021/03/01 00:34:24;;;;;;;89.80;28.08;;;3.20;95.90;;;;;;5027991;28;20392;-85
2021/03/01 00:36:50;;;;;;;105.57;29.73;;;3.30;95.90;;;;;;5028734;28;20736;-84
2021/03/01 00:39:15;;;;;;;70.93;28.55;;;3.30;95.80;;;;;;5028796;28;20382;-86
2021/03/01 00:41:41;;;;;;;77.68;27.38;;;3.40;95.80;;;;;;5029269;28;20402;-85
2021/03/01 00:44:06;;;;;;;85.15;27.48;;;3.30;95.60;;;;;;5028950;28;20375;-84
2021/03/01 00:46:32;;;;;;;82.15;27.67;;;3.40;95.50;;;;;;5029028;28;20387;-84
2021/03/01 00:48:57;;;;;;;63.05;25.35;;;3.40;95.70;;;;;;5027804;28;20972;-85
2021/03/01 00:51:25;;;;;;;57.60;24.17;;;3.30;95.50;;;;;;5029164;28;20528;-85
2021/03/01 00:53:50;;;;;;;51.90;23.83;;;3.40;95.50;;;;;;5027698;28;20383;-84
2021/03/01 00:56:16;;;;;;;58.90;24.47;;;3.40;95.20;;;;;;5028691;28;20375;-84
2021/03/01 00:58:41;;;;;;;60.17;25.17;;;3.40;95.00;;;;;;5027402;28;20467;-85
2021/03/01 01:01:07;;;;;;;91.27;27.63;;;3.40;95.00;;;;;;5027769;28;20458;-84
2021/03/01 01:03:33;;;;;;;82.70;27.47;;;3.40;95.20;;;;;;5027844;28;20390;-85
2021/03/01 01:05:58;;;;;;;82.93;28.83;;;3.40;95.30;;;;;;5027661;28;20474;-84
2021/03/01 01:08:24;;;;;;;71.27;28.23;;;3.40;95.40;;;;;;5028617;28;20383;-84
2021/03/01 01:10:50;;;;;;;78.80;29.80;;;3.40;95.50;;;;;;5029112;28;20372;-85
2021/03/01 01:13:15;;;;;;;62.37;27.73;;;3.40;95.40;;;;;;5028787;28;20383;-85
2021/03/01 01:15:40;;;;;;;62.13;26.33;;;3.40;95.30;;;;;;5028953;28;20479;-85
2021/03/01 01:18:07;;;;;;;56.67;24.80;;;3.50;95.20;;;;;;5028300;28;20387;-84
2021/03/01 01:20:32;;;;;;;56.33;25.40;;;3.50;95.10;;;;;;5028618;28;20401;-84
2021/03/01 01:22:58;;;;;;;57.38;25.55;;;3.50;94.90;;;;;;5027295;28;20852;-85
2021/03/01 01:25:24;;;;;;;53.95;24.65;;;3.50;94.90;;;;;;5028548;28;20383;-85
2021/03/01 01:27:49;;;;;;;49.88;23.88;;;3.50;95.10;;;;;;5028066;28;20375;-85
2021/03/01 01:30:19;;;;;;;54.17;23.25;;;3.50;94.90;;;;;;5027215;28;20379;-85
2021/03/01 01:32:45;;;;;;;45.80;22.40;;;3.50;94.70;;;;;;5028233;28;20744;-85
2021/03/01 01:35:12;;;;;;;66.80;24.27;;;3.40;94.90;;;;;;5027181;28;20506;-85
2021/03/01 01:37:38;;;;;;;54.40;23.50;;;3.30;95.00;;;;;;5026407;28;20388;-86
2021/03/01 01:40:06;;;;;;;47.80;22.97;;;3.40;95.00;;;;;;5028375;28;20383;-85
2021/03/01 01:42:32;;;;;;;47.72;21.95;;;3.40;94.90;;;;;;5027783;28;20395;-85
2021/03/01 01:44:58;;;;;;;47.10;21.40;;;3.40;94.80;;;;;;5028451;28;20376;-85
2021/03/01 01:47:24;;;;;;;44.67;19.98;;;3.40;94.60;;;;;;5026397;28;20375;-85
2021/03/01 01:49:50;;;;;;;53.33;21.73;;;3.40;94.60;;;;;;5028224;28;20398;-85
2021/03/01 01:52:15;;;;;;;58.30;22.50;;;3.40;94.60;;;;;;5026546;28;20748;-86
2021/03/01 01:54:42;;;;;;;58.27;23.67;;;3.30;94.60;;;;;;5028005;28;20460;-85
2021/03/01 01:57:08;;;;;;;54.90;23.75;;;3.40;94.90;;;;;;5026278;28;20398;-84
2021/03/01 01:59:34;;;;;;;56.80;23.97;;;3.40;94.90;;;;;;5026676;28;20463;-85
2021/03/01 02:02:01;;;;;;;53.10;22.70;;;3.40;94.90;;;;;;5027967;28;20387;-85
2021/03/01 02:04:28;;;;;;;45.75;20.63;;;3.40;94.90;;;;;;5027668;28;20396;-85
2021/03/01 02:07:09;;;;;;;42.50;20.33;;;3.40;94.60;;;;;;5027734;28;20396;-85
2021/03/01 02:10:04;;;;;;;42.17;19.85;;;3.40;94.70;;;;;;5026258;28;20868;-85
2021/03/01 02:13:01;;;;;;;42.35;19.42;;;3.40;94.50;;;;;;5026417;28;20406;-85
2021/03/01 02:15:49;;;;;;;38.30;19.73;;;3.40;94.40;;;;;;5026718;28;20416;-85
2021/03/01 02:18:14;;;;;;;45.85;20.08;;;3.30;94.40;;;;;;5027107;28;20715;-85
2021/03/01 02:20:47;;;;;;;42.13;20.20;;;3.40;94.40;;;;;;5026326;28;20391;-85
2021/03/01 02:23:15;;;;;;;37.53;19.13;;;3.40;94.50;;;;;;5025967;28;20383;-85
2021/03/01 02:26:02;;;;;;;52.28;21.25;;;3.40;94.50;;;;;;5027503;28;20388;-85
2021/03/01 02:28:31;;;;;;;53.75;21.67;;;3.40;94.60;;;;;;5026816;28;20383;-85
2021/03/01 02:31:01;;;;;;;60.10;24.05;;;3.30;94.70;;;;;;5027248;28;20711;-85
2021/03/01 02:33:32;;;;;;;54.13;23.55;;;3.20;95.00;;;;;;5027765;28;20696;-85
2021/03/01 02:36:09;;;;;;;46.78;21.38;;;3.40;95.10;;;;;;5027805;28;20789;-85
2021/03/01 02:38:37;;;;;;;50.50;21.58;;;3.20;94.90;;;;;;5025866;28;20392;-85
2021/03/01 02:41:03;;;;;;;49.40;21.63;;;3.20;94.90;;;;;;5025975;28;20387;-85
2021/03/01 02:43:31;;;;;;;51.05;21.60;;;3.10;94.70;;;;;;5026201;28;20481;-85
2021/03/01 02:45:59;;;;;;;50.80;21.30;;;3.20;94.80;;;;;;5025925;28;20384;-85
2021/03/01 02:48:27;;;;;;;45.35;20.92;;;3.10;94.80;;;;;;5026992;28;20690;-85
2021/03/01 02:50:53;;;;;;;42.43;20.13;;;3.20;94.80;;;;;;5025723;28;20398;-85
2021/03/01 02:53:20;;;;;;;46.83;20.05;;;3.20;94.70;;;;;;5025753;28;20439;-85
2021/03/01 02:55:48;;;;;;;47.80;20.27;;;3.20;94.60;;;;;;5027507;28;20376;-85
2021/03/01 02:58:17;;;;;;;47.90;21.25;;;3.20;94.80;;;;;;5025625;28;20590;-85
2021/03/01 03:00:44;;;;;;;45.05;20.30;;;3.10;94.70;;;;;;5027058;28;20371;-85
2021/03/01 03:03:11;;;;;;;46.20;20.10;;;3.20;94.80;;;;;;5025812;28;20800;-86
2021/03/01 03:05:39;;;;;;;57.33;20.08;;;3.30;94.60;;;;;;5027473;28;20379;-85
2021/03/01 03:08:06;;;;;;;52.33;20.67;;;3.10;94.70;;;;;;5026534;28;20408;-85
2021/03/01 03:10:33;;;;;;;79.43;24.38;;;3.10;95.00;;;;;;5027076;28;20415;-85
2021/03/01 03:12:59;;;;;;;105.70;25.88;;;2.90;95.60;;;;;;5027002;28;20403;-86
2021/03/01 03:15:26;;;;;;;72.35;25.02;;;2.90;95.90;;;;;;5027277;28;20434;-86
2021/03/01 03:17:53;;;;;;;69.80;25.10;;;2.90;96.00;;;;;;5026362;28;20871;-86
2021/03/01 03:20:20;;;;;;;91.78;27.48;;;2.90;96.10;;;;;;5026851;28;20402;-85
2021/03/01 03:22:45;;;;;;;66.07;25.48;;;2.90;96.00;;;;;;5029470;28;20692;-85
2021/03/01 03:25:12;;;;;;;66.22;24.55;;;3.00;96.10;;;;;;5029037;28;20383;-86
2021/03/01 03:27:38;;;;;;;60.60;23.58;;;3.00;95.90;;;;;;5062351;28;20488;-85
2021/03/01 03:30:21;;;;;;;63.67;24.42;;;3.00;95.80;;;;;;5029015;28;20391;-85
2021/03/01 03:32:48;;;;;;;72.38;25.13;;;3.10;95.70;;;;;;5028928;28;20895;-85
2021/03/01 03:35:14;;;;;;;70.45;23.23;;;3.10;95.50;;;;;;5028876;28;20387;-85
2021/03/01 03:37:46;;;;;;;77.50;25.33;;;3.10;95.40;;;;;;5030277;28;20903;-85
2021/03/01 03:40:13;;;;;;;74.25;25.60;;;3.10;95.70;;;;;;5028996;28;20524;-85
2021/03/01 03:42:41;;;;;;;72.93;25.50;;;3.00;95.80;;;;;;5030002;28;20413;-85
2021/03/01 03:45:08;;;;;;;72.35;26.35;;;3.00;95.90;;;;;;5030403;28;20382;-85
2021/03/01 03:47:35;;;;;;;63.70;24.35;;;3.10;96.00;;;;;;5029912;28;20379;-85
2021/03/01 03:50:04;;;;;;;55.63;23.52;;;3.10;95.90;;;;;;5031005;28;20388;-85
2021/03/01 03:52:33;;;;;;;67.72;24.73;;;3.10;95.70;;;;;;5030157;28;20403;-84
2021/03/01 03:55:01;;;;;;;66.93;23.45;;;3.00;95.80;;;;;;5029078;28;20398;-85
2021/03/01 03:57:32;;;;;;;72.25;23.85;;;3.10;95.70;;;;;;5029588;28;20398;-85
2021/03/01 03:59:58;;;;;;;53.45;20.85;;;3.00;95.50;;;;;;5028952;28;20397;-84
2021/03/01 04:02:25;;;;;;;69.18;23.40;;;3.00;95.70;;;;;;5028877;28;20399;-84
2021/03/01 04:04:52;;;;;;;59.35;23.80;;;2.90;95.80;;;;;;5028827;28;20425;-85
2021/03/01 04:07:18;;;;;;;70.78;24.73;;;3.10;95.80;;;;;;5028074;28;20387;-85
2021/03/01 04:09:45;;;;;;;64.70;24.73;;;3.00;95.80;;;;;;5028367;28;20383;-85
2021/03/01 04:12:13;;;;;;;69.25;23.50;;;3.00;95.90;;;;;;5029909;28;20403;-85
2021/03/01 04:14:39;;;;;;;65.60;23.92;;;3.00;95.90;;;;;;5028331;28;20402;-85
2021/03/01 04:17:14;;;;;;;59.90;22.67;;;3.10;95.90;;;;;;5028179;28;20384;-85
2021/03/01 04:19:41;;;;;;;62.20;23.55;;;3.00;95.70;;;;;;5029521;28;20396;-85
2021/03/01 04:22:08;;;;;;;55.37;22.17;;;3.10;95.90;;;;;;5029872;28;20649;-85
2021/03/01 04:24:36;;;;;;;63.53;23.00;;;3.10;95.70;;;;;;5028261;28;20428;-85
2021/03/01 04:27:04;;;;;;;78.72;23.98;;;3.00;95.80;;;;;;5028900;28;20376;-86
2021/03/01 04:29:30;;;;;;;82.80;24.92;;;2.90;95.90;;;;;;5029495;28;20368;-85
2021/03/01 04:31:57;;;;;;;65.95;24.77;;;3.00;96.00;;;;;;5027429;28;20411;-85
2021/03/01 04:34:24;;;;;;;68.03;25.23;;;3.00;96.10;;;;;;5029518;28;20927;-85
2021/03/01 04:36:49;;;;;;;68.30;23.97;;;3.10;95.90;;;;;;5028482;28;20553;-85
2021/03/01 04:39:16;;;;;;;65.03;24.07;;;3.20;95.70;;;;;;5029491;28;20791;-85
2021/03/01 04:41:43;;;;;;;77.55;24.20;;;3.10;95.90;;;;;;5028891;28;20840;-85
2021/03/01 04:44:14;;;;;;;95.43;26.17;;;3.10;95.80;;;;;;5029391;28;20716;-85
2021/03/01 04:46:42;;;;;;;80.60;25.73;;;3.00;95.90;;;;;;5027145;28;20417;-85
2021/03/01 04:49:09;;;;;;;68.63;24.92;;;2.90;96.30;;;;;;5027913;28;20396;-85
2021/03/01 04:51:35;;;;;;;67.43;24.52;;;3.00;96.30;;;;;;5028005;28;20738;-85
2021/03/01 04:54:01;;;;;;;55.75;22.58;;;3.10;96.10;;;;;;5028612;28;20382;-85
2021/03/01 04:56:27;;;;;;;54.20;22.33;;;3.20;96.00;;;;;;5027757;28;20852;-85
2021/03/01 04:58:54;;;;;;;62.38;23.98;;;3.20;95.80;;;;;;5027301;28;20710;-85
2021/03/01 05:01:20;;;;;;;60.30;23.47;;;3.30;95.50;;;;;;5028980;28;20387;-84
2021/03/01 05:03:47;;;;;;;60.90;24.10;;;3.10;95.60;;;;;;5028732;28;20395;-84
2021/03/01 05:06:13;;;;;;;61.22;24.70;;;3.30;95.70;;;;;;5027533;28;20405;-84
2021/03/01 05:08:41;;;;;;;73.93;24.67;;;3.20;95.70;;;;;;5028237;28;20380;-84
2021/03/01 05:11:07;;;;;;;84.25;24.25;;;3.10;95.80;;;;;;5028606;28;20412;-84
2021/03/01 05:13:33;;;;;;;71.80;25.85;;;3.00;96.00;;;;;;5027305;28;20393;-84
2021/03/01 05:15:59;;;;;;;94.47;26.50;;;3.00;96.30;;;;;;5028915;28;20375;-85
2021/03/01 05:18:26;;;;;;;93.10;26.23;;;3.10;96.30;;;;;;5027956;28;20474;-85
2021/03/01 05:20:54;;;;;;;81.30;26.25;;;3.00;96.40;;;;;;5027043;28;20728;-84
2021/03/01 05:23:20;;;;;;;86.60;25.95;;;3.10;96.40;;;;;;5028655;28;20406;-84
2021/03/01 05:25:46;;;;;;;69.60;26.08;;;3.00;96.40;;;;;;5028374;28;20851;-85
2021/03/01 05:28:11;;;;;;;68.22;24.77;;;3.00;96.40;;;;;;5026936;28;20395;-85
2021/03/01 05:30:37;;;;;;;58.17;22.77;;;3.10;96.30;;;;;;5027976;28;20384;-85
2021/03/01 05:33:02;;;;;;;57.60;22.70;;;3.10;96.30;;;;;;5026647;28;20410;-85
2021/03/01 05:35:28;;;;;;;50.63;23.05;;;3.20;96.00;;;;;;5027913;28;20391;-85
2021/03/01 05:37:54;;;;;;;49.95;19.40;;;3.10;95.90;;;;;;5028367;28;20401;-85
2021/03/01 05:40:19;;;;;;;64.77;20.97;;;3.00;95.50;;;;;;5028286;28;20905;-85
2021/03/01 05:42:47;;;;;;;48.38;20.88;;;2.80;95.90;;;;;;5027495;28;20916;-85
2021/03/01 05:45:13;;;;;;;61.83;22.60;;;2.90;96.20;;;;;;5026589;28;20384;-85
2021/03/01 05:47:39;;;;;;;57.63;22.67;;;2.90;96.10;;;;;;5026542;28;20378;-85
2021/03/01 05:50:10;;;;;;;66.70;23.75;;;2.90;96.10;;;;;;5028382;28;20474;-85
2021/03/01 05:52:39;;;;;;;57.78;22.45;;;2.90;96.10;;;;;;5026306;28;20413;-85
2021/03/01 05:55:06;;;;;;;71.03;22.92;;;2.90;96.10;;;;;;5026251;28;20520;-84
2021/03/01 05:57:33;;;;;;;53.92;22.25;;;2.90;96.10;;;;;;5070315;27;20442;-85
2021/03/01 06:00:00;;;;;;;45.72;19.73;;;2.90;96.10;;;;;;5129786;27;20724;-85
2021/03/01 06:02:26;;;;;;;61.10;21.48;;;2.70;95.90;;;;;;5129462;27;20869;-85
2021/03/01 06:04:53;;;;;;;65.53;19.88;;;2.70;95.90;;;;;;5129361;27;20382;-84
2021/03/01 06:07:18;;;;;;;65.30;21.75;;;2.60;95.80;;;;;;5130532;27;20536;-86
2021/03/01 06:09:44;;;;;;;59.27;19.97;;;2.50;96.00;;;;;;5130113;27;20855;-85
2021/03/01 06:12:10;;;;;;;55.57;20.07;;;2.50;96.00;;;;;;5130927;27;20481;-87
2021/03/01 06:14:36;;;;;;;49.97;21.08;;;2.50;96.10;;;;;;5070995;27;20395;-86
2021/03/01 06:17:18;;;;;;;47.80;20.60;;;2.60;96.20;;;;;;5027205;28;20390;-85
2021/03/01 06:20:01;;;;;;;40.97;19.20;;;2.60;95.90;;;;;;5025037;28;20399;-85
2021/03/01 06:22:32;;;;;;;39.85;18.00;;;2.60;95.90;;;;;;5025887;28;20464;-85
2021/03/01 06:25:07;;;;;;;55.40;20.63;;;2.60;95.80;;;;;;5025359;28;20942;-85
2021/03/01 06:27:45;;;;;;;45.05;18.42;;;2.60;95.60;;;;;;5026136;28;20392;-86
2021/03/01 06:30:12;;;;;;;39.75;16.70;;;2.60;95.60;;;;;;5025354;28;20934;-85
2021/03/01 06:32:37;;;;;;;35.80;16.88;;;2.50;95.70;;;;;;5026793;28;20418;-86
2021/03/01 06:35:26;;;;;;;52.47;17.23;;;2.50;95.80;;;;;;5026484;28;20380;-84
2021/03/01 06:38:30;;;;;;;33.10;16.02;;;2.60;95.70;;;;;;5024771;28;20391;-85
2021/03/01 06:41:12;;;;;;;31.02;16.08;;;2.70;95.40;;;;;;5026283;28;20467;-85
2021/03/01 06:43:55;;;;;;;33.08;15.77;;;2.70;95.50;;;;;;5025050;28;20392;-85
2021/03/01 06:46:22;;;;;;;37.60;16.92;;;2.70;95.40;;;;;;5025381;28;20735;-84
2021/03/01 06:48:48;;;;;;;32.88;16.98;;;2.70;95.30;;;;;;5025581;28;20375;-85
2021/03/01 06:51:13;;;;;;;37.95;16.40;;;2.70;95.40;;;;;;5025859;28;20437;-85
2021/03/01 06:53:39;;;;;;;35.55;18.17;;;2.80;95.30;;;;;;5112120;27;20383;-85
2021/03/01 06:56:12;;;;;;;35.70;17.05;;;2.80;95.20;;;;;;5029519;28;20847;-85
2021/03/01 06:58:46;;;;;;;59.75;19.63;;;2.90;95.20;;;;;;5029734;28;20375;-86
2021/03/01 07:01:21;;;;;;;55.25;18.23;;;2.80;95.00;;;;;;5030011;28;20384;-85
2021/03/01 07:03:49;;;;;;;64.82;20.58;;;2.60;95.50;;;;;;5116128;27;20389;-85
2021/03/01 07:06:15;;;;;;;57.05;19.73;;;2.70;95.90;;;;;;5029535;28;20398;-86
2021/03/01 07:08:49;;;;;;;66.22;19.95;;;2.70;95.80;;;;;;5115459;27;20387;-85
2021/03/01 07:11:28;;;;;;;45.65;20.25;;;2.70;96.00;;;;;;5115445;27;20874;-85
2021/03/01 07:13:57;;;;;;;40.58;18.55;;;2.90;95.90;;;;;;5115522;27;20397;-86
2021/03/01 07:16:23;;;;;;;40.77;18.47;;;2.90;95.70;;;;;;5115712;27;20882;-85
2021/03/01 07:18:50;;;;;;;38.75;18.23;;;2.90;95.80;;;;;;5114971;27;20387;-85
2021/03/01 07:21:17;;;;;;;53.80;19.77;;;2.90;95.60;;;;;;5029836;28;20461;-83
2021/03/01 07:23:45;;;;;;;44.00;17.55;;;2.90;95.60;;;;;;5115549;27;20749;-84
2021/03/01 07:26:13;;;;;;;41.40;18.05;;;2.90;95.50;;;;;;5030162;28;20381;-85
2021/03/01 07:28:42;;;;;;;41.65;18.20;;;2.90;95.60;;;;;;5114208;27;20923;-85
2021/03/01 07:31:11;;;;;;;35.22;17.33;;;3.00;95.40;;;;;;5027589;28;20387;-85
2021/03/01 07:33:38;;;;;;;35.70;17.07;;;2.90;95.50;;;;;;5028987;28;20412;-86
2021/03/01 07:36:06;;;;;;;43.60;17.95;;;3.00;95.70;;;;;;5029330;28;20859;-86
2021/03/01 07:38:33;;;;;;;52.03;18.23;;;3.00;95.50;;;;;;5029118;28;20716;-84
2021/03/01 07:40:59;;;;;;;62.88;20.02;;;2.90;95.20;;;;;;5115374;27;20410;-85
2021/03/01 07:43:26;;;;;;;64.57;18.50;;;2.90;95.60;;;;;;5029984;28;20379;-85
2021/03/01 07:45:52;;;;;;;49.08;18.77;;;2.80;95.70;;;;;;5030129;28;20380;-85
2021/03/01 07:48:18;;;;;;;45.35;19.27;;;2.90;95.90;;;;;;5029969;28;20372;-86
2021/03/01 07:50:46;;;;;;;45.05;19.83;;;3.00;95.80;;;;;;5030365;28;20376;-85
2021/03/01 07:53:51;;;;;;;53.27;23.07;;;3.00;95.60;;;;;;5133719;27;20394;-85
2021/03/01 07:56:25;;;;;;;47.10;18.27;;;3.10;95.60;;;;;;5132697;27;20391;-85
2021/03/01 07:58:59;;;;;;;37.03;18.10;;;3.20;95.30;;;;;;5132786;27;20402;-85
2021/03/01 08:01:27;;;;;;;46.17;18.92;;;3.10;95.20;;;;;;5132698;27;20379;-84
2021/03/01 08:03:52;;;;;;;42.70;19.05;;;3.20;95.30;;;;;;5134099;27;20385;-85
2021/03/01 08:06:19;;;;;;;58.50;18.50;;;3.10;95.50;;;;;;5133354;27;20450;-84
2021/03/01 08:08:49;;;;;;;65.70;19.33;;;3.00;95.60;;;;;;5133432;27;20367;-85
2021/03/01 08:11:34;;;;;;;48.25;18.70;;;2.90;95.80;;;;;;5133891;27;20532;-85
2021/03/01 08:13:59;;;;;;;42.15;18.02;;;3.10;96.10;;;;;;5132422;27;20436;-85
2021/03/01 08:16:25;;;;;;;39.03;17.93;;;3.10;95.90;;;;;;5133793;27;20367;-85
2021/03/01 08:18:55;;;;;;;46.93;19.43;;;3.20;95.80;;;;;;5132178;27;20370;-85
2021/03/01 08:21:21;;;;;;;52.60;19.08;;;3.30;95.50;;;;;;5132528;27;20430;-85
2021/03/01 08:23:47;;;;;;;54.70;19.67;;;3.20;95.50;;;;;;5132838;27;20414;-85
2021/03/01 08:26:28;;;;;;;52.38;19.08;;;3.10;95.60;;;;;;5133901;27;20394;-85
2021/03/01 08:28:55;;;;;;;58.28;19.50;;;3.30;95.70;;;;;;5132465;27;20401;-83
2021/03/01 08:31:29;;;;;;;54.70;20.98;;;3.20;95.70;;;;;;5133501;27;20505;-85
2021/03/01 08:34:24;;;;;;;61.05;22.02;;;3.20;96.20;;;;;;5132649;27;20471;-85
2021/03/01 08:36:50;;;;;;;60.27;20.70;;;3.40;96.30;;;;;;5132074;27;20378;-83
2021/03/01 08:39:36;;;;;;;63.05;19.58;;;3.50;96.00;;;;;;5132085;27;20470;-84
2021/03/01 08:42:02;;;;;;;54.35;19.70;;;3.40;95.50;;;;;;5132374;27;20383;-85
2021/03/01 08:44:28;;;;;;;55.67;20.08;;;3.30;95.90;;;;;;5133475;27;20371;-84
2021/03/01 08:47:02;;;;;;;46.97;19.30;;;3.10;96.20;;;;;;5133075;27;20395;-85
2021/03/01 08:49:28;;;;;;;68.23;19.93;;;3.20;96.10;;;;;;5131803;27;20467;-84
2021/03/01 08:51:55;;;;;;;57.47;19.07;;;3.20;96.20;;;;;;5133235;27;20485;-84
2021/03/01 08:54:31;;;;;;;47.08;18.55;;;3.20;96.10;;;;;;5133191;27;20424;-85
2021/03/01 08:57:07;;;;;;;43.95;17.73;;;3.10;95.90;;;;;;5132816;27;20363;-84
2021/03/01 08:59:33;;;;;;;42.60;17.15;;;3.00;95.80;;;;;;5133443;27;20371;-85
2021/03/01 09:01:58;;;;;;;45.67;17.83;;;2.90;96.10;;;;;;5132890;27;20823;-84
2021/03/01 09:04:24;;;;;;;51.13;19.40;;;3.10;96.10;;;;;;5131908;27;20723;-85
2021/03/01 09:06:49;;;;;;;39.00;17.20;;;3.10;96.00;;;;;;5132304;27;20371;-86
2021/03/01 09:09:15;;;;;;;32.47;15.57;;;3.20;95.60;;;;;;5131544;27;20504;-84
2021/03/01 09:11:41;;;;;;;34.80;16.70;;;3.40;95.60;;;;;;5132511;27;20493;-85
2021/03/01 09:14:07;;;;;;;31.17;15.70;;;3.50;94.90;;;;;;5132788;27;20851;-84
2021/03/01 09:16:35;;;;;;;34.13;15.85;;;3.50;94.60;;;;;;5132590;27;20504;-84
2021/03/01 09:19:06;;;;;;;33.45;15.88;;;3.50;94.50;;;;;;5132858;27;20398;-84
2021/03/01 09:21:36;;;;;;;31.77;15.20;;;3.70;94.50;;;;;;5132556;27;20447;-85
2021/03/01 09:24:03;;;;;;;31.85;14.85;;;3.80;94.30;;;;;;5131204;27;20406;-85
2021/03/01 09:26:37;;;;;;;31.17;14.85;;;3.80;94.30;;;;;;5131225;27;20378;-84
2021/03/01 09:29:10;;;;;;;33.27;15.03;;;3.70;93.90;;;;;;5131042;27;20389;-85
2021/03/01 09:31:56;;;;;;;30.17;14.57;;;3.80;94.40;;;;;;5132440;27;20777;-84
2021/03/01 09:34:27;;;;;;;32.50;15.18;;;3.90;94.20;;;;;;5132120;27;20393;-85
2021/03/01 09:36:52;;;;;;;37.00;17.92;;;3.90;93.70;;;;;;5132221;27;20359;-86
2021/03/01 09:39:24;;;;;;;43.13;17.27;;;3.90;93.40;;;;;;5132095;27;20516;-85
2021/03/01 09:41:50;;;;;;;37.70;16.45;;;3.60;93.80;;;;;;5132301;27;20358;-85
2021/03/01 09:44:27;;;;;;;43.30;16.98;;;3.70;94.30;;;;;;5132569;27;20375;-85
2021/03/01 09:46:54;;;;;;;33.53;14.88;;;3.60;94.60;;;;;;5131449;27;20375;-84
2021/03/01 09:49:21;;;;;;;36.03;15.80;;;3.70;94.30;;;;;;5132181;27;20363;-84
2021/03/01 09:51:48;;;;;;;31.75;14.73;;;3.80;94.00;;;;;;5131426;27;20398;-85
2021/03/01 09:54:14;;;;;;;29.70;14.20;;;3.90;94.00;;;;;;5131016;27;20378;-84
2021/03/01 09:56:50;;;;;;;28.33;14.75;;;4.10;93.60;;;;;;5131415;27;20700;-84
2021/03/01 09:59:36;;;;;;;35.33;16.48;;;4.10;93.70;;;;;;5132070;27;20370;-85
2021/03/01 10:02:14;;;;;;;31.73;14.85;;;4.10;93.90;;;;;;5130498;27;20401;-86
2021/03/01 10:04:40;;;;;;;33.03;16.35;;;4.20;93.40;;;;;;5131650;27;20774;-85
2021/03/01 10:07:24;;;;;;;30.67;15.25;;;4.30;93.20;;;;;;5130302;27;20375;-85
2021/03/01 10:09:50;;;;;;;30.65;15.30;;;4.10;93.50;;;;;;5131315;27;20708;-85
2021/03/01 10:12:17;;;;;;;24.60;14.40;;;4.40;93.10;;;;;;5131912;27;20398;-86
2021/03/01 10:14:43;;;;;;;29.20;14.55;;;4.40;92.90;;;;;;5131748;27;20404;-84
2021/03/01 10:17:17;;;;;;;30.73;15.05;;;4.40;92.30;;;;;;5131302;27;20370;-85
2021/03/01 10:19:43;;;;;;;29.40;14.73;;;4.50;92.70;;;;;;5131220;27;20377;-85
2021/03/01 10:22:09;;;;;;;30.67;15.38;;;4.50;92.50;;;;;;5130412;27;20374;-85
2021/03/01 10:25:00;;;;;;;29.55;14.40;;;4.50;92.10;;;;;;5131844;27;20367;-85
2021/03/01 10:27:36;;;;;;;28.35;14.93;;;4.60;92.30;;;;;;5127544;27;20452;-84
2021/03/01 10:30:04;;;;;;;37.65;14.88;;;4.60;92.40;;;;;;5131334;27;20371;-85
2021/03/01 10:32:30;;;;;;;34.90;16.25;;;4.60;92.20;;;;;;5130002;27;20430;-84
2021/03/01 10:34:55;;;;;;;35.38;16.05;;;4.70;92.60;;;;;;5130329;27;20419;-84
2021/03/01 10:37:23;;;;;;;34.47;16.13;;;4.80;92.60;;;;;;5130511;28;20905;-85
2021/03/01 10:39:50;;;;;;;34.85;16.67;;;4.70;92.50;;;;;;5131636;27;20729;-84
2021/03/01 10:42:18;;;;;;;41.17;17.27;;;4.50;92.40;;;;;;5131315;27;20370;-82
2021/03/01 10:45:00;;;;;;;41.50;16.83;;;4.30;93.30;;;;;;5102759;27;20736;-85
2021/03/01 10:47:31;;;;;;;41.63;18.52;;;4.00;93.40;;;;;;5130112;28;20379;-85
2021/03/01 10:50:03;;;;;;;40.22;16.83;;;4.10;93.80;;;;;;5130970;27;20381;-83
2021/03/01 10:52:29;;;;;;;35.30;16.35;;;4.40;93.60;;;;;;5131427;27;20390;-84
2021/03/01 10:54:56;;;;;;;32.15;14.80;;;4.50;92.80;;;;;;5131047;27;20379;-83
2021/03/01 10:57:26;;;;;;;34.85;15.32;;;4.40;91.80;;;;;;5131029;27;20399;-84
2021/03/01 10:59:54;;;;;;;37.97;17.42;;;3.90;93.40;;;;;;5129402;28;20379;-84
2021/03/01 11:02:21;;;;;;;39.33;16.60;;;4.20;93.70;;;;;;5130747;27;20765;-84
2021/03/01 11:04:47;;;;;;;37.03;15.40;;;4.40;93.20;;;;;;5130837;27;20370;-84
2021/03/01 11:07:14;;;;;;;43.27;17.87;;;4.30;92.70;;;;;;5129392;28;20386;-83
2021/03/01 11:09:39;;;;;;;41.03;18.42;;;4.10;93.10;;;;;;5129588;28;20378;-86
2021/03/01 11:12:05;;;;;;;41.77;16.50;;;4.30;93.30;;;;;;5130809;28;20965;-85
2021/03/01 11:14:31;;;;;;;31.92;13.93;;;4.10;93.20;;;;;;5130933;28;20692;-83
2021/03/01 11:16:58;;;;;;;37.38;16.15;;;4.10;92.60;;;;;;5128548;28;20379;-84
2021/03/01 11:19:24;;;;;;;32.97;15.07;;;4.30;93.40;;;;;;5130751;27;20855;-83
2021/03/01 11:21:50;;;;;;;36.00;15.50;;;4.20;92.60;;;;;;5129205;28;20477;-83
2021/03/01 11:24:19;;;;;;;39.22;16.73;;;4.00;92.90;;;;;;5129448;28;20391;-84
2021/03/01 11:26:45;;;;;;;39.47;16.80;;;4.20;93.20;;;;;;5128757;28;20379;-83
2021/03/01 11:29:11;;;;;;;43.40;17.13;;;4.40;92.90;;;;;;5129263;28;20374;-82
2021/03/01 11:31:36;;;;;;;42.00;16.75;;;4.20;91.80;;;;;;5130796;28;20455;-83
2021/03/01 11:34:06;;;;;;;45.25;17.98;;;4.00;92.80;;;;;;5130441;28;20399;-84
2021/03/01 11:36:32;;;;;;;48.25;18.95;;;4.10;93.50;;;;;;5130899;27;20388;-84
2021/03/01 11:38:58;;;;;;;41.13;16.60;;;4.40;92.60;;;;;;5128862;28;20403;-82
2021/03/01 11:41:24;;;;;;;43.77;18.00;;;4.20;92.50;;;;;;5132820;27;20851;-85
2021/03/01 11:43:51;;;;;;;50.72;21.58;;;4.40;92.50;;;;;;5134171;27;20419;-85
2021/03/01 11:46:18;;;;;;;41.88;17.55;;;4.50;91.90;;;;;;5132981;27;20398;-84
2021/03/01 11:48:43;;;;;;;40.13;16.63;;;4.40;92.30;;;;;;5133584;27;20439;-84
2021/03/01 11:51:12;;;;;;;36.90;17.00;;;4.20;92.60;;;;;;5133200;27;20383;-85
2021/03/01 11:53:39;;;;;;;36.92;16.45;;;4.20;92.80;;;;;;5133981;27;20358;-84
2021/03/01 11:56:06;;;;;;;42.80;17.95;;;4.20;92.90;;;;;;5132590;27;20385;-85
2021/03/01 11:58:32;;;;;;;38.30;17.95;;;4.40;92.70;;;;;;5133529;27;20858;-85
2021/03/01 12:00:57;;;;;;;36.87;17.07;;;4.80;91.80;;;;;;5132803;27;20421;-85
2021/03/01 12:03:22;;;;;;;44.80;20.67;;;4.90;91.10;;;;;;5132772;27;20383;-85
2021/03/01 12:05:48;;;;;;;43.53;19.33;;;4.70;91.40;;;;;;5132839;27;20721;-85
2021/03/01 12:08:14;;;;;;;38.90;17.33;;;4.90;91.10;;;;;;5133272;27;20366;-85
2021/03/01 12:10:40;;;;;;;36.38;16.83;;;4.70;91.40;;;;;;5132458;27;20382;-86
2021/03/01 12:13:05;;;;;;;34.10;15.77;;;4.70;91.50;;;;;;5132445;27;20489;-86
2021/03/01 12:15:32;;;;;;;39.90;17.17;;;4.60;91.60;;;;;;5133658;27;20378;-85
2021/03/01 12:17:58;;;;;;;34.03;15.82;;;4.30;92.90;;;;;;5132156;27;20423;-86
2021/03/01 12:20:24;;;;;;;32.72;15.27;;;4.70;91.90;;;;;;5131962;27;20394;-84
2021/03/01 12:22:50;;;;;;;31.80;15.97;;;4.60;91.20;;;;;;5134118;27;20469;-83
2021/03/01 12:25:16;;;;;;;30.20;15.20;;;4.70;91.50;;;;;;5133746;27;20375;-86
2021/03/01 12:27:42;;;;;;;33.67;15.93;;;4.60;91.60;;;;;;5133328;27;20405;-84
2021/03/01 12:30:08;;;;;;;34.03;16.40;;;4.40;91.70;;;;;;5133490;27;20374;-86
2021/03/01 12:32:34;;;;;;;46.15;16.95;;;4.60;91.60;;;;;;5132212;27;20390;-85
2021/03/01 12:35:01;;;;;;;33.33;15.45;;;4.70;91.00;;;;;;5132141;27;20396;-86
2021/03/01 12:37:27;;;;;;;29.80;15.60;;;4.90;91.60;;;;;;5133251;27;20367;-86
2021/03/01 12:39:53;;;;;;;32.13;15.32;;;4.80;90.80;;;;;;5133716;27;20374;-85
2021/03/01 12:42:18;;;;;;;30.15;14.98;;;5.10;90.90;;;;;;5132012;27;20379;-86